Flight Track Log - Related Links

Times and Time Zones

All times are in EDT time to prevent confusion due to time zone crossing. See the N588AC flight status page for this flight to view local times or setup timezone preferences in your user account.

Time Position Orientation Groundspeed Altitude Reporting Facility
EDT Latitude Longitude Course Direction KTS MPH feet Rate Location/Type
Sun 10:18:02 AM 33.9861 -78.8353 331° Northwest 296 341 5,600  Level Jacksonville Center
Sun 10:19:02 AM 34.0606 -78.8794 334° Northwest 301 346 8,400 2,300 Climbing Jacksonville Center
Sun 10:20:02 AM 34.1331 -78.9264 332° Northwest 301 346 10,200 1,580 Climbing Jacksonville Center
Sun 10:21:00 AM 34.2144 -78.9651 331° Northwest  Level FlightAware Approximate
Sun 10:22:00 AM 34.2833 -79.0111 331° Northwest  Level FlightAware Approximate
Sun 10:22:27 AM 34.3267 -79.0344 335° Northwest 336 387 13,800  Level Washington Center
Sun 10:23:25 AM 34.4169 -79.0939 331° Northwest 336 387 15,600 1,563 Climbing Washington Center
Sun 10:24:26 AM 34.4928 -79.1372 335° Northwest 341 392 16,900 1,140 Climbing Washington Center
Sun 10:25:26 AM 34.5767 -79.1914 332° Northwest 341 392 17,900 992 Climbing Washington Center
Sun 10:26:27 AM 34.6628 -79.2456 333° Northwest 341 392 18,900 942 Climbing Washington Center
Sun 10:27:27 AM 34.7508 -79.3003 333° Northwest 341 392 19,800 966 Climbing Washington Center
Sun 10:28:25 AM 34.8408 -79.3575 332° Northwest 347 399 20,800 1,059 Climbing Washington Center
Sun 10:29:26 AM 34.9353 -79.4050 338° Northwest 357 411 21,900 1,488 Climbing Washington Center
Sun 10:30:26 AM 35.0297 -79.4475 340° North 363 418 23,800 1,686 Climbing Washington Center
Sun 10:31:27 AM 35.1203 -79.4872 340° North 357 411 25,300 1,091 Climbing Washington Center
Sun 10:32:27 AM 35.2108 -79.5247 341° North 347 399 26,000 356 Climbing Washington Center
Sun 10:33:25 AM 35.3075 -79.5675 340° North 347 399 26,000 -148 Level Washington Center
Sun 10:35:09 AM 35.4978 -79.6486 341° North 370 426 25,600 -476 Descending Atlanta Center
Sun 10:36:09 AM 35.5994 -79.6917 341° North 383 441 24,700 -1,000 Descending Atlanta Center
Sun 10:37:09 AM 35.7011 -79.7297 343° North 383 441 23,600 -1,050 Descending Atlanta Center
Sun 10:38:09 AM 35.8028 -79.7756 340° North 383 441 22,600 -1,000 Descending Atlanta Center
Sun 10:39:09 AM 35.9025 -79.8217 339° North 383 441 21,600 -1,050 Descending Atlanta Center
Sun 10:40:09 AM 36.0019 -79.8678 339° North 383 441 20,500 -1,150 Descending Atlanta Center
Sun 10:41:09 AM 36.0889 -79.9044 341° North 376 433 19,300 -1,200 Descending Atlanta Center
Sun 10:42:09 AM 36.1839 -79.9458 341° North 370 426 18,100 -1,200 Descending Atlanta Center
Sun 10:43:09 AM 36.2814 -79.9872 341° North 370 426 16,900 -1,200 Descending Atlanta Center
Sun 10:44:09 AM 36.3725 -80.0342 337° Northwest 365 420 15,700 -1,350 Descending Atlanta Center
Sun 10:45:09 AM 36.4719 -80.0758 341° North 353 406 14,200 -1,500 Descending Atlanta Center
Sun 10:46:09 AM 36.5628 -80.1178 340° North 348 400 12,700 -1,650 Descending Atlanta Center
Sun 10:47:09 AM 36.6517 -80.1575 340° North 343 395 10,900 -1,550 Descending Atlanta Center
Sun 10:48:09 AM 36.7386 -80.1972 340° North 336 387 9,600 -1,200 Descending Atlanta Center
Sun 10:49:09 AM 36.8231 -80.2347 340° North 331 381 8,500 -1,100 Descending Atlanta Center
Sun 10:50:09 AM 36.8950 -80.2675 340° North 319 367 7,400 -1,150 Descending Atlanta Center
Sun 10:51:09 AM 36.9733 -80.3053 339° North 307 353 6,200 -700 Descending Atlanta Center
Sun 10:52:09 AM 37.0514 -80.3381 341° North 307 353 6,000 -300 Descending Atlanta Center
Sun 10:53:09 AM 37.1275 -80.3736 340° North 296 341 5,600 -650 Descending Atlanta Center
Sun 10:54:09 AM 37.2042 -80.4300 330° Northwest 296 341 4,700 -700 Descending Atlanta Center
Sun 10:55:09 AM 37.2742 -80.4683 336° Northwest 289 333 4,200 -500 Descending Atlanta Center

Login

Don't have an account? Register now (free) for customized features, flight alerts, and more!